Terminal Aerodrome Forecast
Issued by NWS

Home | Current Version | Previous Version | Text Only | Print | Product List | Glossary On
Versions: 1 2 3 4 5 6 7 8 9 10 11 12 13 14 15 16 17 18 19 20 21 22 23
000
FTUS44 KCRP 011200 AAA
TAFALI
TAF AMD
KALI 011217Z 0112/0212 VRB03KT 2SM BR FEW011 SCT150 SCT200
      WS020/18035KT
      TEMPO 0112/0114 1/2SM FG VV011
     FM011500 20006KT P6SM SCT050 BKN150
     FM020200 01014G21KT P6SM FEW020 SCT100
     FM020400 01018G27KT P6SM SCT050 BKN250=

USA.gov is the U.S. government's official web portal to all federal, state and local government web resources and services.